sensor_id;sensor_type;location;lat;lon;timestamp;temperature;humidity
12426;DHT22;6277;49.824;9.562;2024-01-16T00:00:45;3.70;75.60
12426;DHT22;6277;49.824;9.562;2024-01-16T00:03:11;3.60;75.50
12426;DHT22;6277;49.824;9.562;2024-01-16T00:05:37;3.60;75.60
12426;DHT22;6277;49.824;9.562;2024-01-16T00:08:03;3.60;75.30
12426;DHT22;6277;49.824;9.562;2024-01-16T00:10:28;3.70;75.50
12426;DHT22;6277;49.824;9.562;2024-01-16T00:12:54;3.60;75.50
12426;DHT22;6277;49.824;9.562;2024-01-16T00:15:19;3.70;75.40
12426;DHT22;6277;49.824;9.562;2024-01-16T00:17:45;3.70;75.40
12426;DHT22;6277;49.824;9.562;2024-01-16T00:20:11;3.70;75.50
12426;DHT22;6277;49.824;9.562;2024-01-16T00:22:36;3.70;75.50
12426;DHT22;6277;49.824;9.562;2024-01-16T00:25:02;3.70;75.60
12426;DHT22;6277;49.824;9.562;2024-01-16T00:27:27;3.70;75.50
12426;DHT22;6277;49.824;9.562;2024-01-16T00:29:53;3.70;75.60
12426;DHT22;6277;49.824;9.562;2024-01-16T00:32:18;3.70;75.50
12426;DHT22;6277;49.824;9.562;2024-01-16T00:34:44;3.70;75.50
12426;DHT22;6277;49.824;9.562;2024-01-16T00:37:09;3.80;76.10
12426;DHT22;6277;49.824;9.562;2024-01-16T00:39:35;3.70;75.40
12426;DHT22;6277;49.824;9.562;2024-01-16T00:42:02;3.80;75.40
12426;DHT22;6277;49.824;9.562;2024-01-16T00:44:27;3.80;75.40
12426;DHT22;6277;49.824;9.562;2024-01-16T00:46:53;3.80;75.20
12426;DHT22;6277;49.824;9.562;2024-01-16T00:49:19;3.80;75.40
12426;DHT22;6277;49.824;9.562;2024-01-16T00:51:44;3.80;75.40
12426;DHT22;6277;49.824;9.562;2024-01-16T00:54:10;3.80;75.30
12426;DHT22;6277;49.824;9.562;2024-01-16T00:56:36;3.80;75.30
12426;DHT22;6277;49.824;9.562;2024-01-16T00:59:02;3.80;75.30
12426;DHT22;6277;49.824;9.562;2024-01-16T01:01:28;3.80;75.30
12426;DHT22;6277;49.824;9.562;2024-01-16T01:03:53;3.80;75.30
12426;DHT22;6277;49.824;9.562;2024-01-16T01:06:19;3.80;75.20
12426;DHT22;6277;49.824;9.562;2024-01-16T01:08:44;3.80;75.00
12426;DHT22;6277;49.824;9.562;2024-01-16T01:11:11;3.80;75.20
12426;DHT22;6277;49.824;9.562;2024-01-16T01:13:37;3.80;75.20
12426;DHT22;6277;49.824;9.562;2024-01-16T01:16:03;3.80;75.10
12426;DHT22;6277;49.824;9.562;2024-01-16T01:18:28;3.80;75.00
12426;DHT22;6277;49.824;9.562;2024-01-16T01:20:54;3.80;75.10
12426;DHT22;6277;49.824;9.562;2024-01-16T01:23:19;3.70;75.10
12426;DHT22;6277;49.824;9.562;2024-01-16T01:25:45;3.70;75.10
12426;DHT22;6277;49.824;9.562;2024-01-16T01:28:11;3.70;75.10
12426;DHT22;6277;49.824;9.562;2024-01-16T01:30:37;3.70;75.00
12426;DHT22;6277;49.824;9.562;2024-01-16T01:33:02;3.70;75.00
12426;DHT22;6277;49.824;9.562;2024-01-16T01:35:28;3.70;75.10
12426;DHT22;6277;49.824;9.562;2024-01-16T01:37:54;3.60;75.10
12426;DHT22;6277;49.824;9.562;2024-01-16T01:40:20;3.60;74.90
12426;DHT22;6277;49.824;9.562;2024-01-16T01:42:45;3.60;75.00
12426;DHT22;6277;49.824;9.562;2024-01-16T01:45:11;3.60;75.00
12426;DHT22;6277;49.824;9.562;2024-01-16T01:47:41;3.60;75.10
12426;DHT22;6277;49.824;9.562;2024-01-16T01:50:10;3.60;74.90
12426;DHT22;6277;49.824;9.562;2024-01-16T01:52:40;3.60;74.90
12426;DHT22;6277;49.824;9.562;2024-01-16T01:55:10;3.60;75.10
12426;DHT22;6277;49.824;9.562;2024-01-16T01:57:35;3.60;75.10
12426;DHT22;6277;49.824;9.562;2024-01-16T02:00:02;3.60;75.10
12426;DHT22;6277;49.824;9.562;2024-01-16T02:02:28;3.60;75.10
12426;DHT22;6277;49.824;9.562;2024-01-16T02:04:54;3.60;75.00
12426;DHT22;6277;49.824;9.562;2024-01-16T02:07:20;3.60;75.00
12426;DHT22;6277;49.824;9.562;2024-01-16T02:09:46;3.60;75.00
12426;DHT22;6277;49.824;9.562;2024-01-16T02:12:12;3.60;75.10
12426;DHT22;6277;49.824;9.562;2024-01-16T02:14:38;3.60;75.10
12426;DHT22;6277;49.824;9.562;2024-01-16T02:17:04;3.60;75.10
12426;DHT22;6277;49.824;9.562;2024-01-16T02:19:29;3.60;75.10
12426;DHT22;6277;49.824;9.562;2024-01-16T02:21:59;3.60;75.10
12426;DHT22;6277;49.824;9.562;2024-01-16T02:24:25;3.60;75.30
12426;DHT22;6277;49.824;9.562;2024-01-16T02:26:51;3.60;75.10
12426;DHT22;6277;49.824;9.562;2024-01-16T02:29:17;3.60;75.10
12426;DHT22;6277;49.824;9.562;2024-01-16T02:31:43;3.60;75.00
12426;DHT22;6277;49.824;9.562;2024-01-16T02:34:08;3.60;75.10
12426;DHT22;6277;49.824;9.562;2024-01-16T02:36:34;3.60;75.00
12426;DHT22;6277;49.824;9.562;2024-01-16T02:39:00;3.70;75.20
12426;DHT22;6277;49.824;9.562;2024-01-16T02:41:25;3.70;75.10
12426;DHT22;6277;49.824;9.562;2024-01-16T02:43:51;3.60;74.90
12426;DHT22;6277;49.824;9.562;2024-01-16T02:46:17;3.60;74.90
12426;DHT22;6277;49.824;9.562;2024-01-16T02:48:42;3.60;75.00
12426;DHT22;6277;49.824;9.562;2024-01-16T02:51:09;3.70;75.10
12426;DHT22;6277;49.824;9.562;2024-01-16T02:53:34;3.70;75.10
12426;DHT22;6277;49.824;9.562;2024-01-16T02:56:00;3.70;75.00
12426;DHT22;6277;49.824;9.562;2024-01-16T02:58:27;3.70;75.00
12426;DHT22;6277;49.824;9.562;2024-01-16T03:00:53;3.70;75.00
12426;DHT22;6277;49.824;9.562;2024-01-16T03:03:19;3.70;74.90
12426;DHT22;6277;49.824;9.562;2024-01-16T03:05:44;3.70;74.90
12426;DHT22;6277;49.824;9.562;2024-01-16T03:08:10;3.70;75.00
12426;DHT22;6277;49.824;9.562;2024-01-16T03:10:36;3.70;75.00
12426;DHT22;6277;49.824;9.562;2024-01-16T03:13:01;3.60;74.90
12426;DHT22;6277;49.824;9.562;2024-01-16T03:15:28;3.70;75.10
12426;DHT22;6277;49.824;9.562;2024-01-16T03:17:55;3.60;75.00
12426;DHT22;6277;49.824;9.562;2024-01-16T03:20:20;3.60;75.00
12426;DHT22;6277;49.824;9.562;2024-01-16T03:22:48;3.70;75.10
12426;DHT22;6277;49.824;9.562;2024-01-16T03:25:14;3.60;75.10
12426;DHT22;6277;49.824;9.562;2024-01-16T03:27:39;3.70;75.00
12426;DHT22;6277;49.824;9.562;2024-01-16T03:30:06;3.70;75.10
12426;DHT22;6277;49.824;9.562;2024-01-16T03:32:32;3.70;75.10
12426;DHT22;6277;49.824;9.562;2024-01-16T03:34:57;3.70;75.10
12426;DHT22;6277;49.824;9.562;2024-01-16T03:37:23;3.70;75.00
12426;DHT22;6277;49.824;9.562;2024-01-16T03:39:48;3.60;74.80
12426;DHT22;6277;49.824;9.562;2024-01-16T03:42:15;3.60;74.90
12426;DHT22;6277;49.824;9.562;2024-01-16T03:44:41;3.60;74.60
12426;DHT22;6277;49.824;9.562;2024-01-16T03:47:08;3.60;74.80
12426;DHT22;6277;49.824;9.562;2024-01-16T03:49:34;3.60;74.80
12426;DHT22;6277;49.824;9.562;2024-01-16T03:52:00;3.50;74.80
12426;DHT22;6277;49.824;9.562;2024-01-16T03:54:25;3.50;74.80
12426;DHT22;6277;49.824;9.562;2024-01-16T03:56:51;3.50;74.70
12426;DHT22;6277;49.824;9.562;2024-01-16T03:59:17;3.50;74.80
12426;DHT22;6277;49.824;9.562;2024-01-16T04:01:42;3.50;74.90
12426;DHT22;6277;49.824;9.562;2024-01-16T04:04:10;3.40;74.90
12426;DHT22;6277;49.824;9.562;2024-01-16T04:06:35;3.40;75.00
12426;DHT22;6277;49.824;9.562;2024-01-16T04:09:01;3.40;75.00
12426;DHT22;6277;49.824;9.562;2024-01-16T04:11:29;3.40;75.10
12426;DHT22;6277;49.824;9.562;2024-01-16T04:13:54;3.40;74.90
12426;DHT22;6277;49.824;9.562;2024-01-16T04:16:20;3.40;75.10
12426;DHT22;6277;49.824;9.562;2024-01-16T04:18:45;3.40;75.10
12426;DHT22;6277;49.824;9.562;2024-01-16T04:21:11;3.40;75.00
12426;DHT22;6277;49.824;9.562;2024-01-16T04:23:37;3.40;75.00
12426;DHT22;6277;49.824;9.562;2024-01-16T04:26:02;3.40;75.00
12426;DHT22;6277;49.824;9.562;2024-01-16T04:28:28;3.40;75.10
12426;DHT22;6277;49.824;9.562;2024-01-16T04:30:53;3.40;75.20
12426;DHT22;6277;49.824;9.562;2024-01-16T04:33:19;3.40;75.10
12426;DHT22;6277;49.824;9.562;2024-01-16T04:35:45;3.40;75.10
12426;DHT22;6277;49.824;9.562;2024-01-16T04:38:11;3.40;75.00
12426;DHT22;6277;49.824;9.562;2024-01-16T04:40:36;3.40;75.00
12426;DHT22;6277;49.824;9.562;2024-01-16T04:43:02;3.50;75.20
12426;DHT22;6277;49.824;9.562;2024-01-16T04:45:28;3.40;75.10
12426;DHT22;6277;49.824;9.562;2024-01-16T04:47:53;3.40;74.90
12426;DHT22;6277;49.824;9.562;2024-01-16T04:50:19;3.40;74.90
12426;DHT22;6277;49.824;9.562;2024-01-16T04:52:44;3.40;74.90
12426;DHT22;6277;49.824;9.562;2024-01-16T04:55:10;3.50;75.10
12426;DHT22;6277;49.824;9.562;2024-01-16T04:57:35;3.40;75.00
12426;DHT22;6277;49.824;9.562;2024-01-16T05:00:01;3.30;74.90
12426;DHT22;6277;49.824;9.562;2024-01-16T05:02:26;3.30;75.00
12426;DHT22;6277;49.824;9.562;2024-01-16T05:04:52;3.30;75.00
12426;DHT22;6277;49.824;9.562;2024-01-16T05:07:18;3.30;74.90
12426;DHT22;6277;49.824;9.562;2024-01-16T05:09:46;3.20;74.90
12426;DHT22;6277;49.824;9.562;2024-01-16T05:12:12;3.20;74.80
12426;DHT22;6277;49.824;9.562;2024-01-16T05:14:37;3.20;74.80
12426;DHT22;6277;49.824;9.562;2024-01-16T05:17:03;3.20;74.80
12426;DHT22;6277;49.824;9.562;2024-01-16T05:19:28;3.10;74.80
12426;DHT22;6277;49.824;9.562;2024-01-16T05:21:54;3.10;74.80
12426;DHT22;6277;49.824;9.562;2024-01-16T05:24:20;3.00;74.70
12426;DHT22;6277;49.824;9.562;2024-01-16T05:26:45;3.00;74.70
12426;DHT22;6277;49.824;9.562;2024-01-16T05:29:11;2.90;74.60
12426;DHT22;6277;49.824;9.562;2024-01-16T05:31:41;2.90;74.70
12426;DHT22;6277;49.824;9.562;2024-01-16T05:34:07;2.90;74.60
12426;DHT22;6277;49.824;9.562;2024-01-16T05:36:33;2.90;74.70
12426;DHT22;6277;49.824;9.562;2024-01-16T05:38:58;2.80;74.60
12426;DHT22;6277;49.824;9.562;2024-01-16T05:41:24;2.80;74.70
12426;DHT22;6277;49.824;9.562;2024-01-16T05:43:49;2.80;74.70
12426;DHT22;6277;49.824;9.562;2024-01-16T05:46:15;2.70;74.70
12426;DHT22;6277;49.824;9.562;2024-01-16T05:48:40;2.70;74.70
12426;DHT22;6277;49.824;9.562;2024-01-16T05:51:06;2.60;74.80
12426;DHT22;6277;49.824;9.562;2024-01-16T05:53:31;2.60;74.80
12426;DHT22;6277;49.824;9.562;2024-01-16T05:55:57;2.60;74.70
12426;DHT22;6277;49.824;9.562;2024-01-16T05:58:22;2.50;74.70
12426;DHT22;6277;49.824;9.562;2024-01-16T06:00:48;2.50;74.80
12426;DHT22;6277;49.824;9.562;2024-01-16T06:03:13;2.40;74.70
12426;DHT22;6277;49.824;9.562;2024-01-16T06:05:39;2.40;74.80
12426;DHT22;6277;49.824;9.562;2024-01-16T06:08:05;2.40;74.90
12426;DHT22;6277;49.824;9.562;2024-01-16T06:10:31;2.40;75.00
12426;DHT22;6277;49.824;9.562;2024-01-16T06:12:56;2.40;75.10
12426;DHT22;6277;49.824;9.562;2024-01-16T06:15:22;2.40;75.10
12426;DHT22;6277;49.824;9.562;2024-01-16T06:17:48;2.40;75.10
12426;DHT22;6277;49.824;9.562;2024-01-16T06:20:14;2.40;75.10
12426;DHT22;6277;49.824;9.562;2024-01-16T06:22:39;2.30;75.10
12426;DHT22;6277;49.824;9.562;2024-01-16T06:25:05;2.30;75.10
12426;DHT22;6277;49.824;9.562;2024-01-16T06:27:31;2.40;75.10
12426;DHT22;6277;49.824;9.562;2024-01-16T06:29:57;2.30;75.10
12426;DHT22;6277;49.824;9.562;2024-01-16T06:32:23;2.30;75.20
12426;DHT22;6277;49.824;9.562;2024-01-16T06:34:49;2.30;75.20
12426;DHT22;6277;49.824;9.562;2024-01-16T06:37:14;2.30;75.10
12426;DHT22;6277;49.824;9.562;2024-01-16T06:39:40;2.30;75.10
12426;DHT22;6277;49.824;9.562;2024-01-16T06:42:05;2.20;75.10
12426;DHT22;6277;49.824;9.562;2024-01-16T06:44:31;2.20;75.10
12426;DHT22;6277;49.824;9.562;2024-01-16T06:46:57;2.20;75.10
12426;DHT22;6277;49.824;9.562;2024-01-16T06:49:22;2.20;75.10
12426;DHT22;6277;49.824;9.562;2024-01-16T06:51:48;2.10;75.00
12426;DHT22;6277;49.824;9.562;2024-01-16T06:54:13;2.10;74.90
12426;DHT22;6277;49.824;9.562;2024-01-16T06:56:39;2.10;74.90
12426;DHT22;6277;49.824;9.562;2024-01-16T06:59:04;2.10;74.90
12426;DHT22;6277;49.824;9.562;2024-01-16T07:01:30;2.00;74.80
12426;DHT22;6277;49.824;9.562;2024-01-16T07:03:56;2.00;74.80
12426;DHT22;6277;49.824;9.562;2024-01-16T07:06:21;2.00;74.70
12426;DHT22;6277;49.824;9.562;2024-01-16T07:08:47;1.90;74.80
12426;DHT22;6277;49.824;9.562;2024-01-16T07:11:13;1.90;74.80
12426;DHT22;6277;49.824;9.562;2024-01-16T07:13:40;1.90;74.80
12426;DHT22;6277;49.824;9.562;2024-01-16T07:16:09;1.90;74.80
12426;DHT22;6277;49.824;9.562;2024-01-16T07:18:34;1.80;74.80
12426;DHT22;6277;49.824;9.562;2024-01-16T07:21:00;1.80;74.70
12426;DHT22;6277;49.824;9.562;2024-01-16T07:23:25;1.80;74.70
12426;DHT22;6277;49.824;9.562;2024-01-16T07:25:51;1.70;74.70
12426;DHT22;6277;49.824;9.562;2024-01-16T07:28:16;1.70;74.70
12426;DHT22;6277;49.824;9.562;2024-01-16T07:30:42;1.70;74.70
12426;DHT22;6277;49.824;9.562;2024-01-16T07:33:07;1.70;74.60
12426;DHT22;6277;49.824;9.562;2024-01-16T07:35:33;1.70;74.70
12426;DHT22;6277;49.824;9.562;2024-01-16T07:37:58;1.70;74.80
12426;DHT22;6277;49.824;9.562;2024-01-16T07:40:24;1.60;74.80
12426;DHT22;6277;49.824;9.562;2024-01-16T07:42:50;1.70;75.00
12426;DHT22;6277;49.824;9.562;2024-01-16T07:45:15;1.70;75.10
12426;DHT22;6277;49.824;9.562;2024-01-16T07:47:41;1.70;75.20
12426;DHT22;6277;49.824;9.562;2024-01-16T07:50:07;1.70;75.20
12426;DHT22;6277;49.824;9.562;2024-01-16T07:52:33;1.80;75.40
12426;DHT22;6277;49.824;9.562;2024-01-16T07:54:58;1.80;75.50
12426;DHT22;6277;49.824;9.562;2024-01-16T07:57:24;1.90;75.50
12426;DHT22;6277;49.824;9.562;2024-01-16T07:59:49;2.00;75.60
12426;DHT22;6277;49.824;9.562;2024-01-16T08:02:15;2.00;75.60
12426;DHT22;6277;49.824;9.562;2024-01-16T08:04:40;2.10;75.60
12426;DHT22;6277;49.824;9.562;2024-01-16T08:07:06;2.20;75.60
12426;DHT22;6277;49.824;9.562;2024-01-16T08:09:32;2.20;75.50
12426;DHT22;6277;49.824;9.562;2024-01-16T08:11:57;2.30;75.50
12426;DHT22;6277;49.824;9.562;2024-01-16T08:14:23;2.40;75.50
12426;DHT22;6277;49.824;9.562;2024-01-16T08:16:49;2.40;75.40
12426;DHT22;6277;49.824;9.562;2024-01-16T08:19:14;2.50;75.40
12426;DHT22;6277;49.824;9.562;2024-01-16T08:21:40;2.50;75.50
12426;DHT22;6277;49.824;9.562;2024-01-16T08:24:06;2.50;75.40
12426;DHT22;6277;49.824;9.562;2024-01-16T08:26:31;2.60;75.60
12426;DHT22;6277;49.824;9.562;2024-01-16T08:28:57;2.70;75.60
12426;DHT22;6277;49.824;9.562;2024-01-16T08:31:23;2.80;75.60
12426;DHT22;6277;49.824;9.562;2024-01-16T08:33:49;2.80;75.70
12426;DHT22;6277;49.824;9.562;2024-01-16T08:36:14;2.90;75.70
12426;DHT22;6277;49.824;9.562;2024-01-16T08:38:40;3.00;75.70
12426;DHT22;6277;49.824;9.562;2024-01-16T08:41:06;3.10;75.70
12426;DHT22;6277;49.824;9.562;2024-01-16T08:43:35;3.10;75.60
12426;DHT22;6277;49.824;9.562;2024-01-16T08:46:00;3.20;75.90
12426;DHT22;6277;49.824;9.562;2024-01-16T08:48:26;3.30;75.40
12426;DHT22;6277;49.824;9.562;2024-01-16T08:50:52;3.30;75.40
12426;DHT22;6277;49.824;9.562;2024-01-16T08:53:19;3.40;75.40
12426;DHT22;6277;49.824;9.562;2024-01-16T08:55:45;3.40;75.30
12426;DHT22;6277;49.824;9.562;2024-01-16T08:58:10;3.50;75.30
12426;DHT22;6277;49.824;9.562;2024-01-16T09:00:36;3.60;75.20
12426;DHT22;6277;49.824;9.562;2024-01-16T09:03:03;3.60;75.10
12426;DHT22;6277;49.824;9.562;2024-01-16T09:05:29;3.60;75.00
12426;DHT22;6277;49.824;9.562;2024-01-16T09:07:55;3.70;75.00
12426;DHT22;6277;49.824;9.562;2024-01-16T09:10:20;3.80;75.00
12426;DHT22;6277;49.824;9.562;2024-01-16T09:12:46;3.80;75.10
12426;DHT22;6277;49.824;9.562;2024-01-16T09:15:11;3.90;75.20
12426;DHT22;6277;49.824;9.562;2024-01-16T09:17:37;4.00;75.20
12426;DHT22;6277;49.824;9.562;2024-01-16T09:20:02;4.10;75.20
12426;DHT22;6277;49.824;9.562;2024-01-16T09:22:28;4.20;75.20
12426;DHT22;6277;49.824;9.562;2024-01-16T09:24:54;4.20;75.30
12426;DHT22;6277;49.824;9.562;2024-01-16T09:27:19;4.40;75.40
12426;DHT22;6277;49.824;9.562;2024-01-16T09:29:45;4.50;75.40
12426;DHT22;6277;49.824;9.562;2024-01-16T09:32:10;4.60;75.30
12426;DHT22;6277;49.824;9.562;2024-01-16T09:34:36;4.70;75.40
12426;DHT22;6277;49.824;9.562;2024-01-16T09:37:01;4.80;75.20
12426;DHT22;6277;49.824;9.562;2024-01-16T09:39:28;4.90;75.10
12426;DHT22;6277;49.824;9.562;2024-01-16T09:41:58;5.00;74.90
12426;DHT22;6277;49.824;9.562;2024-01-16T09:44:25;5.10;74.70
12426;DHT22;6277;49.824;9.562;2024-01-16T09:46:51;5.20;74.60
12426;DHT22;6277;49.824;9.562;2024-01-16T09:49:18;5.20;74.30
12426;DHT22;6277;49.824;9.562;2024-01-16T09:51:45;5.20;74.30
12426;DHT22;6277;49.824;9.562;2024-01-16T09:54:11;5.30;74.10
12426;DHT22;6277;49.824;9.562;2024-01-16T09:56:42;5.30;74.10
12426;DHT22;6277;49.824;9.562;2024-01-16T09:59:09;5.40;73.60
12426;DHT22;6277;49.824;9.562;2024-01-16T10:01:35;5.40;73.90
12426;DHT22;6277;49.824;9.562;2024-01-16T10:04:02;5.40;73.90
12426;DHT22;6277;49.824;9.562;2024-01-16T10:06:28;5.50;73.90
12426;DHT22;6277;49.824;9.562;2024-01-16T10:08:55;5.50;73.80
12426;DHT22;6277;49.824;9.562;2024-01-16T10:11:20;5.60;74.00
12426;DHT22;6277;49.824;9.562;2024-01-16T10:13:46;5.60;73.90
12426;DHT22;6277;49.824;9.562;2024-01-16T10:16:11;5.70;73.80
12426;DHT22;6277;49.824;9.562;2024-01-16T10:18:37;5.70;73.80
12426;DHT22;6277;49.824;9.562;2024-01-16T10:21:03;5.80;74.00
12426;DHT22;6277;49.824;9.562;2024-01-16T10:23:32;5.90;74.10
12426;DHT22;6277;49.824;9.562;2024-01-16T10:26:11;6.00;74.00
12426;DHT22;6277;49.824;9.562;2024-01-16T10:28:42;6.10;73.40
12426;DHT22;6277;49.824;9.562;2024-01-16T10:31:12;6.20;73.60
12426;DHT22;6277;49.824;9.562;2024-01-16T10:33:41;6.30;73.80
12426;DHT22;6277;49.824;9.562;2024-01-16T10:36:14;6.40;74.00
12426;DHT22;6277;49.824;9.562;2024-01-16T10:38:43;6.50;73.50
12426;DHT22;6277;49.824;9.562;2024-01-16T10:41:15;6.60;73.80
12426;DHT22;6277;49.824;9.562;2024-01-16T10:43:43;6.70;73.20
12426;DHT22;6277;49.824;9.562;2024-01-16T10:46:14;6.80;73.20
12426;DHT22;6277;49.824;9.562;2024-01-16T10:48:41;6.80;72.70
12426;DHT22;6277;49.824;9.562;2024-01-16T10:51:08;6.80;72.70
12426;DHT22;6277;49.824;9.562;2024-01-16T10:53:35;6.80;72.50
12426;DHT22;6277;49.824;9.562;2024-01-16T10:56:01;6.80;72.50
12426;DHT22;6277;49.824;9.562;2024-01-16T10:58:30;6.80;72.50
12426;DHT22;6277;49.824;9.562;2024-01-16T11:00:57;6.80;72.20
12426;DHT22;6277;49.824;9.562;2024-01-16T11:03:36;6.80;72.40
12426;DHT22;6277;49.824;9.562;2024-01-16T11:06:06;6.90;71.70
12426;DHT22;6277;49.824;9.562;2024-01-16T11:08:35;6.90;71.90
12426;DHT22;6277;49.824;9.562;2024-01-16T11:11:02;6.80;72.00
12426;DHT22;6277;49.824;9.562;2024-01-16T11:13:31;6.80;71.50
12426;DHT22;6277;49.824;9.562;2024-01-16T11:15:58;6.70;71.60
12426;DHT22;6277;49.824;9.562;2024-01-16T11:18:24;6.60;71.50
12426;DHT22;6277;49.824;9.562;2024-01-16T11:20:52;6.50;70.50
12426;DHT22;6277;49.824;9.562;2024-01-16T11:23:18;6.40;71.20
12426;DHT22;6277;49.824;9.562;2024-01-16T11:25:43;6.20;70.70
12426;DHT22;6277;49.824;9.562;2024-01-16T11:28:11;6.10;70.70
12426;DHT22;6277;49.824;9.562;2024-01-16T11:30:37;6.00;70.60
12426;DHT22;6277;49.824;9.562;2024-01-16T11:33:03;5.90;71.70
12426;DHT22;6277;49.824;9.562;2024-01-16T11:35:36;5.80;70.70
12426;DHT22;6277;49.824;9.562;2024-01-16T11:38:18;5.70;70.20
12426;DHT22;6277;49.824;9.562;2024-01-16T11:40:45;5.60;68.90
12426;DHT22;6277;49.824;9.562;2024-01-16T11:46:05;5.40;69.90
12426;DHT22;6277;49.824;9.562;2024-01-16T11:48:31;5.40;70.50
12426;DHT22;6277;49.824;9.562;2024-01-16T11:50:57;5.30;70.90
12426;DHT22;6277;49.824;9.562;2024-01-16T11:53:38;5.30;71.60
12426;DHT22;6277;49.824;9.562;2024-01-16T12:01:35;5.40;71.60
12426;DHT22;6277;49.824;9.562;2024-01-16T12:04:07;5.50;71.50
12426;DHT22;6277;49.824;9.562;2024-01-16T12:06:35;5.50;71.50
12426;DHT22;6277;49.824;9.562;2024-01-16T12:09:11;5.60;71.70
12426;DHT22;6277;49.824;9.562;2024-01-16T12:11:37;5.70;71.20
12426;DHT22;6277;49.824;9.562;2024-01-16T12:14:03;5.80;72.20
12426;DHT22;6277;49.824;9.562;2024-01-16T12:16:29;5.90;72.20
12426;DHT22;6277;49.824;9.562;2024-01-16T12:19:10;6.00;71.80
12426;DHT22;6277;49.824;9.562;2024-01-16T12:21:46;6.10;71.10
12426;DHT22;6277;49.824;9.562;2024-01-16T12:24:12;6.20;71.80
12426;DHT22;6277;49.824;9.562;2024-01-16T12:26:38;6.30;72.30
12426;DHT22;6277;49.824;9.562;2024-01-16T12:29:05;6.40;72.30
12426;DHT22;6277;49.824;9.562;2024-01-16T12:31:32;6.60;72.10
12426;DHT22;6277;49.824;9.562;2024-01-16T12:34:10;6.80;72.10
12426;DHT22;6277;49.824;9.562;2024-01-16T12:36:36;6.90;70.70
12426;DHT22;6277;49.824;9.562;2024-01-16T12:39:06;7.00;71.40
12426;DHT22;6277;49.824;9.562;2024-01-16T12:41:35;7.10;71.40
12426;DHT22;6277;49.824;9.562;2024-01-16T12:44:02;7.10;70.90
12426;DHT22;6277;49.824;9.562;2024-01-16T12:46:28;7.10;71.00
12426;DHT22;6277;49.824;9.562;2024-01-16T12:49:01;7.20;71.00
12426;DHT22;6277;49.824;9.562;2024-01-16T12:51:26;7.20;70.20
12426;DHT22;6277;49.824;9.562;2024-01-16T12:53:52;7.20;70.60
12426;DHT22;6277;49.824;9.562;2024-01-16T12:56:20;7.20;70.40
12426;DHT22;6277;49.824;9.562;2024-01-16T12:58:46;7.20;69.90
12426;DHT22;6277;49.824;9.562;2024-01-16T13:03:49;7.20;69.50
12426;DHT22;6277;49.824;9.562;2024-01-16T13:06:18;7.30;70.30
12426;DHT22;6277;49.824;9.562;2024-01-16T13:09:03;7.30;69.90
12426;DHT22;6277;49.824;9.562;2024-01-16T13:11:30;7.30;70.00
12426;DHT22;6277;49.824;9.562;2024-01-16T13:14:02;7.30;70.00
12426;DHT22;6277;49.824;9.562;2024-01-16T13:16:30;7.30;69.40
12426;DHT22;6277;49.824;9.562;2024-01-16T13:19:02;7.30;69.80
12426;DHT22;6277;49.824;9.562;2024-01-16T13:21:30;7.30;69.10
12426;DHT22;6277;49.824;9.562;2024-01-16T13:23:55;7.20;69.50
12426;DHT22;6277;49.824;9.562;2024-01-16T13:26:21;7.20;69.50
12426;DHT22;6277;49.824;9.562;2024-01-16T13:28:47;7.20;69.50
12426;DHT22;6277;49.824;9.562;2024-01-16T13:31:13;7.20;69.50
12426;DHT22;6277;49.824;9.562;2024-01-16T13:33:38;7.20;69.60
12426;DHT22;6277;49.824;9.562;2024-01-16T13:36:04;7.20;69.60
12426;DHT22;6277;49.824;9.562;2024-01-16T13:38:30;7.20;69.60
12426;DHT22;6277;49.824;9.562;2024-01-16T13:40:56;7.20;69.60
12426;DHT22;6277;49.824;9.562;2024-01-16T13:43:21;7.20;69.60
12426;DHT22;6277;49.824;9.562;2024-01-16T13:45:47;7.30;69.50
12426;DHT22;6277;49.824;9.562;2024-01-16T13:48:15;7.30;69.70
12426;DHT22;6277;49.824;9.562;2024-01-16T13:50:42;7.30;69.90
12426;DHT22;6277;49.824;9.562;2024-01-16T13:53:08;7.40;70.00
12426;DHT22;6277;49.824;9.562;2024-01-16T13:55:33;7.40;69.90
12426;DHT22;6277;49.824;9.562;2024-01-16T13:57:59;7.50;69.90
12426;DHT22;6277;49.824;9.562;2024-01-16T14:00:24;7.50;69.70
12426;DHT22;6277;49.824;9.562;2024-01-16T14:02:50;7.50;69.60
12426;DHT22;6277;49.824;9.562;2024-01-16T14:05:18;7.50;69.50
12426;DHT22;6277;49.824;9.562;2024-01-16T14:07:45;7.50;69.40
12426;DHT22;6277;49.824;9.562;2024-01-16T14:10:16;7.50;69.40
12426;DHT22;6277;49.824;9.562;2024-01-16T14:12:43;7.40;69.30
12426;DHT22;6277;49.824;9.562;2024-01-16T14:15:10;7.40;69.30
12426;DHT22;6277;49.824;9.562;2024-01-16T14:17:45;7.40;69.30
12426;DHT22;6277;49.824;9.562;2024-01-16T14:20:11;7.40;69.00
12426;DHT22;6277;49.824;9.562;2024-01-16T14:22:38;7.40;69.10
12426;DHT22;6277;49.824;9.562;2024-01-16T14:25:14;7.40;69.10
12426;DHT22;6277;49.824;9.562;2024-01-16T14:27:45;7.40;69.10
12426;DHT22;6277;49.824;9.562;2024-01-16T14:30:13;7.30;69.10
12426;DHT22;6277;49.824;9.562;2024-01-16T14:32:45;7.30;69.10
12426;DHT22;6277;49.824;9.562;2024-01-16T14:35:14;7.30;68.80
12426;DHT22;6277;49.824;9.562;2024-01-16T14:37:40;7.30;69.10
12426;DHT22;6277;49.824;9.562;2024-01-16T14:40:07;7.20;69.10
12426;DHT22;6277;49.824;9.562;2024-01-16T14:42:41;7.20;69.00
12426;DHT22;6277;49.824;9.562;2024-01-16T14:45:08;7.10;69.00
12426;DHT22;6277;49.824;9.562;2024-01-16T14:47:34;7.10;68.90
12426;DHT22;6277;49.824;9.562;2024-01-16T14:50:00;7.00;69.40
12426;DHT22;6277;49.824;9.562;2024-01-16T14:52:25;7.00;68.90
12426;DHT22;6277;49.824;9.562;2024-01-16T14:54:51;6.90;68.90
12426;DHT22;6277;49.824;9.562;2024-01-16T14:57:18;6.80;68.80
12426;DHT22;6277;49.824;9.562;2024-01-16T14:59:43;6.80;68.90
12426;DHT22;6277;49.824;9.562;2024-01-16T15:02:10;6.70;68.60
12426;DHT22;6277;49.824;9.562;2024-01-16T15:04:40;6.60;68.50
12426;DHT22;6277;49.824;9.562;2024-01-16T15:07:06;6.50;68.40
12426;DHT22;6277;49.824;9.562;2024-01-16T15:09:32;6.40;68.50
12426;DHT22;6277;49.824;9.562;2024-01-16T15:12:01;6.30;68.50
12426;DHT22;6277;49.824;9.562;2024-01-16T15:14:27;6.20;68.50
12426;DHT22;6277;49.824;9.562;2024-01-16T15:16:52;6.10;68.50
12426;DHT22;6277;49.824;9.562;2024-01-16T15:19:18;6.00;68.50
12426;DHT22;6277;49.824;9.562;2024-01-16T15:21:43;5.90;68.40
12426;DHT22;6277;49.824;9.562;2024-01-16T15:24:09;5.80;68.50
12426;DHT22;6277;49.824;9.562;2024-01-16T15:26:37;5.70;68.40
12426;DHT22;6277;49.824;9.562;2024-01-16T15:29:02;5.60;68.40
12426;DHT22;6277;49.824;9.562;2024-01-16T15:31:28;5.50;68.40
12426;DHT22;6277;49.824;9.562;2024-01-16T15:33:53;5.50;68.40
12426;DHT22;6277;49.824;9.562;2024-01-16T15:36:20;5.30;68.30
12426;DHT22;6277;49.824;9.562;2024-01-16T15:38:47;5.30;68.40
12426;DHT22;6277;49.824;9.562;2024-01-16T15:41:12;5.20;68.40
12426;DHT22;6277;49.824;9.562;2024-01-16T15:43:38;5.10;69.10
12426;DHT22;6277;49.824;9.562;2024-01-16T15:46:03;5.00;68.50
12426;DHT22;6277;49.824;9.562;2024-01-16T15:48:29;4.90;68.50
12426;DHT22;6277;49.824;9.562;2024-01-16T15:50:59;4.80;68.60
12426;DHT22;6277;49.824;9.562;2024-01-16T15:53:24;4.80;68.70
12426;DHT22;6277;49.824;9.562;2024-01-16T15:55:52;4.70;68.70
12426;DHT22;6277;49.824;9.562;2024-01-16T15:58:18;4.60;68.70
12426;DHT22;6277;49.824;9.562;2024-01-16T16:00:43;4.60;68.80
12426;DHT22;6277;49.824;9.562;2024-01-16T16:03:09;4.50;68.80
12426;DHT22;6277;49.824;9.562;2024-01-16T16:05:35;4.40;68.80
12426;DHT22;6277;49.824;9.562;2024-01-16T16:08:03;4.40;68.80